.
WxDataArchive / Data Records for 2015-04-02
2015-04-01 April 2015 2015-04-03

Data Records for Thursday, 02 April 2015

Time	Temp	Chill	HIndex	Humid	Dewpt	 Wind 	HiWind	WindDir	Rain 	Barom
-----	----	-----	------	-----	-----	------	------	-------	-----	-----
00:00	53.3	53.3	53.3	49	34.6	0	2	90	0.00	29.965 
00:05	53.2	53.2	53.2	49	34.5	0	3	90	0.00	29.965 
00:10	53.1	53.1	53.1	49	34.4	0	3	90	0.00	29.965 
00:15	53.1	53.1	53.1	48	33.9	1	3	90	0.00	29.955 
00:20	53.2	53.2	53.2	47	33.5	1	5	90	0.00	29.955 
00:25	53.5	53.5	53.5	46	33.2	1	5	90	0.00	29.955 
00:30	53.5	53.5	53.5	47	33.8	1	3	90	0.00	29.946 
00:35	53.3	53.3	53.3	47	33.6	1	3	90	0.00	29.946 
00:40	53.2	53.2	53.2	46	33.0	1	3	90	0.00	29.946 
00:45	53.2	53.2	53.2	46	33.0	1	3	90	0.00	29.944 
00:50	53.1	53.1	53.1	46	32.9	1	3	90	0.00	29.944 
00:55	52.9	52.9	52.9	46	32.7	1	2	90	0.00	29.944 
01:00	52.8	52.8	52.8	47	33.1	1	3	90	0.00	29.935 
01:05	52.6	52.6	52.6	47	32.9	1	3	90	0.00	29.935 
01:10	52.3	52.3	52.3	48	33.2	0	3	45	0.00	29.935 
01:15	52.2	52.2	52.2	48	33.1	0	3	45	0.00	29.931 
01:20	52.0	52.0	52.0	48	32.9	1	5	68	0.00	29.931 
01:25	51.9	51.9	51.9	48	32.8	1	3	68	0.00	29.931 
01:30	51.7	51.7	51.7	48	32.6	1	4	68	0.00	29.925 
01:35	51.6	51.6	51.6	48	32.6	0	3	68	0.00	29.925 
01:40	51.4	51.4	51.4	48	32.4	1	3	68	0.00	29.925 
01:45	51.3	51.3	51.3	49	32.8	0	2	68	0.00	29.914 
01:50	51.3	51.3	51.3	49	32.8	1	3	68	0.00	29.914 
01:55	51.1	51.1	51.1	49	32.6	0	2	68	0.00	29.914 
02:00	51.0	51.0	51.0	49	32.5	0	1	68	0.00	29.902 
02:05	50.8	50.8	50.8	49	32.3	0	1	68	0.00	29.902 
02:10	50.7	50.7	50.7	48	31.7	0	4	68	0.00	29.902 
02:15	50.7	50.7	50.7	49	32.2	0	2	112	0.00	29.896 
02:20	50.5	50.5	50.5	49	32.1	0	2	112	0.00	29.896 
02:25	50.2	50.2	50.2	50	32.3	0	2	112	0.00	29.896 
02:30	50.1	50.1	50.1	50	32.2	0	2	112	0.00	29.896 
02:35	49.9	49.9	49.9	49	31.5	1	2	112	0.00	29.896 
02:40	50.1	50.1	50.1	49	31.7	1	3	112	0.00	29.896 
02:45	50.1	50.1	50.1	48	31.2	1	2	112	0.00	29.884 
02:50	50.2	50.2	50.2	48	31.3	1	5	135	0.00	29.884 
02:55	50.1	50.1	50.1	49	31.7	0	3	112	0.00	29.884 
03:00	49.9	49.9	49.9	49	31.5	1	3	112	0.00	29.879 
03:05	49.6	49.6	49.6	49	31.2	1	3	112	0.00	29.879 
03:10	49.5	49.5	49.5	49	31.1	0	2	112	0.00	29.879 
03:15	49.2	49.2	49.2	50	31.4	0	2	112	0.00	29.881 
03:20	49.1	49.1	49.1	50	31.3	0	2	112	0.00	29.881 
03:25	48.8	48.8	48.8	50	31.0	0	3	135	0.00	29.881 
03:30	48.6	48.6	48.6	51	31.3	0	2	135	0.00	29.873 
03:35	48.3	48.3	48.3	51	31.0	0	3	135	0.00	29.873 
03:40	48.0	48.0	48.0	52	31.2	0	1	135	0.00	29.873 
03:45	47.7	47.7	47.7	52	30.9	0	2	135	0.00	29.876 
03:50	47.6	47.6	47.6	52	30.9	0	1	180	0.00	29.876 
03:55	47.6	47.6	47.6	53	31.3	0	1	112	0.00	29.876 
04:00	47.4	47.4	47.4	53	31.1	0	1	112	0.00	29.873 
04:05	47.1	47.1	47.1	53	30.9	0	1	112	0.00	29.873 
04:10	47.0	47.0	47.0	53	30.8	0	2	112	0.00	29.873 
04:15	46.8	46.8	46.8	54	31.0	0	1	112	0.00	29.872 
04:20	46.7	46.7	46.7	54	30.9	0	1	112	0.00	29.872 
04:25	46.5	46.5	46.5	55	31.2	0	1	112	0.00	29.872 
04:30	46.4	46.4	46.4	54	30.7	0	1	112	0.00	29.867 
04:35	46.2	46.2	46.2	54	30.5	0	1	112	0.00	29.867 
04:40	46.2	46.2	46.2	54	30.5	0	0	---	0.00	29.867 
04:45	46.1	46.1	46.1	55	30.8	0	1	112	0.00	29.861 
04:50	46.0	46.0	46.0	55	30.7	0	0	---	0.00	29.861 
04:55	45.8	45.8	45.8	55	30.6	0	0	---	0.00	29.861 
05:00	45.7	45.7	45.7	56	30.9	0	0	---	0.00	29.862 
05:05	45.5	45.5	45.5	56	30.7	0	0	---	0.00	29.862 
05:10	45.4	45.4	45.4	55	30.2	0	0	---	0.00	29.862 
05:15	45.4	45.4	45.4	56	30.6	0	0	---	0.00	29.857 
05:20	45.4	45.4	45.4	56	30.6	0	0	---	0.00	29.857 
05:25	45.4	45.4	45.4	56	30.6	0	0	---	0.00	29.857 
05:30	45.2	45.2	45.2	56	30.4	0	0	---	0.00	29.858 
05:35	45.2	45.2	45.2	56	30.4	0	1	112	0.00	29.858 
05:40	45.4	45.4	45.4	55	30.2	0	2	112	0.00	29.858 
05:45	45.7	45.7	45.7	54	30.0	0	1	112	0.00	29.853 
05:50	46.1	46.1	46.1	52	29.5	0	2	112	0.00	29.853 
05:55	46.5	46.5	46.5	51	29.4	1	3	112	0.00	29.853 
06:00	47.0	47.0	47.0	51	29.8	1	4	90	0.00	29.838 
06:05	47.1	47.1	47.1	51	29.9	0	2	90	0.00	29.838 
06:10	47.0	47.0	47.0	51	29.8	0	1	90	0.00	29.838 
06:15	46.8	46.8	46.8	52	30.1	0	1	90	0.00	29.830 
06:20	46.7	46.7	46.7	52	30.0	0	1	90	0.00	29.830 
06:25	46.7	46.7	46.7	51	29.5	0	1	90	0.00	29.830 
06:30	47.0	47.0	47.0	50	29.3	0	3	90	0.00	29.822 
06:35	47.4	47.4	47.4	49	29.2	1	3	90	0.00	29.822 
06:40	47.9	47.9	47.9	48	29.2	1	3	90	0.00	29.822 
06:45	48.3	48.3	48.3	47	29.0	1	3	90	0.00	29.816 
06:50	48.8	48.8	48.8	46	28.9	1	4	90	0.00	29.816 
06:55	49.4	49.4	49.4	44	28.4	1	5	90	0.00	29.816 
07:00	49.9	49.9	49.9	45	29.4	1	5	90	0.00	29.808 
07:05	50.5	50.5	50.5	44	29.4	2	6	90	0.00	29.808 
07:10	50.8	50.8	50.8	48	31.8	1	3	68	0.00	29.808 
07:15	50.5	50.5	50.5	49	32.1	1	3	68	0.00	29.806 
07:20	50.2	50.2	50.2	51	32.8	1	4	68	0.00	29.806 
07:25	50.2	50.2	50.2	51	32.8	1	3	68	0.00	29.806 
07:30	50.5	50.5	50.5	50	32.6	2	4	68	0.00	29.794 
07:35	50.7	50.7	50.7	50	32.7	1	3	68	0.00	29.794 
07:40	50.7	50.7	50.7	50	32.7	1	3	68	0.00	29.794 
07:45	50.8	50.8	50.8	51	33.3	1	2	68	0.00	29.795 
07:50	50.8	50.8	50.8	51	33.3	1	3	68	0.00	29.795 
07:55	50.8	50.8	50.8	50	32.8	0	3	68	0.00	29.795 
08:00	51.0	51.0	51.0	50	33.0	0	2	68	0.00	29.791 
08:05	51.0	51.0	51.0	50	33.0	0	2	68	0.00	29.791 
08:10	51.1	51.1	51.1	50	33.1	0	2	68	0.00	29.791 
08:15	51.3	51.3	51.3	50	33.3	0	3	68	0.00	29.790 
08:20	51.7	51.7	51.7	49	33.2	0	3	68	0.00	29.790 
08:25	51.9	51.9	51.9	49	33.3	0	1	68	0.00	29.790 
08:30	52.2	52.2	52.2	49	33.6	0	2	68	0.00	29.778 
08:35	52.5	52.5	52.5	49	33.9	0	2	68	0.00	29.778 
08:40	53.2	53.2	53.2	48	34.0	0	3	68	0.00	29.778 
08:45	53.8	53.8	53.8	48	34.6	1	4	68	0.00	29.776 
08:50	54.2	54.2	54.2	46	33.9	1	3	68	0.00	29.776 
08:55	54.8	54.8	54.8	46	34.4	1	3	68	0.00	29.776 
09:00	55.4	55.4	55.4	46	35.0	0	3	68	0.00	29.772 
09:05	55.9	55.9	55.9	45	34.9	1	5	68	0.00	29.772 
09:10	56.0	56.0	56.0	43	33.8	1	4	68	0.00	29.772 
09:15	56.2	56.2	56.2	44	34.6	2	4	90	0.00	29.764 
09:20	56.2	56.2	56.2	45	35.1	1	4	45	0.00	29.764 
09:25	56.0	56.0	56.0	46	35.5	2	5	90	0.00	29.764 
09:30	56.5	56.5	56.5	45	35.4	2	5	90	0.00	29.769 
09:35	56.7	56.7	56.7	46	36.2	1	3	90	0.00	29.769 
09:40	56.9	56.9	56.9	46	36.3	2	9	90	0.00	29.769 
09:45	57.2	57.2	57.2	47	37.2	1	5	90	0.00	29.771 
09:50	57.5	57.5	57.5	46	36.9	2	6	112	0.00	29.771 
09:55	57.5	57.5	57.5	44	35.8	3	9	90	0.00	29.771 
10:00	57.5	57.5	57.5	45	36.3	2	5	90	0.00	29.759 
10:05	57.3	57.3	57.3	46	36.7	1	3	90	0.00	29.759 
10:10	57.0	57.0	57.0	45	35.9	1	5	68	0.00	29.759 
10:15	57.0	57.0	57.0	46	36.4	1	5	112	0.00	29.748 
10:20	57.0	57.0	57.0	46	36.4	2	5	90	0.00	29.748 
10:25	57.0	57.0	57.0	47	37.0	1	5	112	0.00	29.748 
10:30	57.0	57.0	57.0	48	37.5	1	4	112	0.00	29.742 
10:35	57.0	57.0	57.0	50	38.5	1	5	112	0.00	29.742 
10:40	57.2	57.2	57.2	52	39.7	1	4	112	0.00	29.742 
10:45	57.5	57.5	57.5	51	39.5	1	5	112	0.00	29.730 
10:50	58.4	58.4	58.4	50	39.8	1	3	90	0.00	29.730 
10:55	59.8	59.8	59.8	47	39.5	1	5	90	0.00	29.730 
11:00	60.7	60.7	60.7	48	40.9	1	3	292	0.00	29.729 
11:05	61.3	61.3	61.3	45	39.8	1	4	248	0.00	29.729 
11:10	61.2	61.2	61.2	46	40.3	1	4	315	0.00	29.729 
11:15	60.7	60.7	60.7	52	43.0	1	6	248	0.00	29.735 
11:20	60.2	60.2	60.2	54	43.5	1	3	248	0.00	29.735 
11:25	60.1	60.1	60.1	54	43.4	1	5	270	0.00	29.735 
11:30	60.2	60.2	60.2	55	44.0	0	2	270	0.00	29.728 
11:35	60.9	60.9	60.9	52	43.2	2	5	270	0.00	29.728 
11:40	61.0	61.0	61.0	53	43.7	1	4	90	0.00	29.728 
11:45	61.2	61.2	61.2	53	43.9	1	4	90	0.00	29.710 
11:50	62.3	62.3	62.3	53	44.9	2	6	112	0.00	29.710 
11:55	63.7	63.7	63.7	49	44.2	4	11	90	0.00	29.710 
12:00	65.2	65.2	65.2	49	45.6	3	7	90	0.00	29.686 
12:05	65.8	65.8	65.8	48	45.6	2	7	90	0.00	29.686 
12:10	65.8	65.8	65.8	49	46.1	1	4	90	0.00	29.686 
12:15	65.5	65.5	65.5	54	48.4	2	8	248	0.01	29.720 
12:20	62.9	62.9	62.9	68	52.2	3	6	248	0.03	29.720 
12:25	60.2	60.2	60.2	76	52.6	3	6	270	0.06	29.720 
12:30	58.9	58.9	58.9	81	53.1	1	6	270	0.04	29.745 
12:35	58.1	58.1	58.1	83	53.0	2	6	248	0.01	29.745 
12:40	57.6	57.6	57.6	85	53.1	1	3	248	0.00	29.745 
12:45	57.3	57.3	57.3	86	53.1	0	3	248	0.00	29.743 
12:50	57.3	57.3	57.3	87	53.5	0	2	248	0.00	29.743 
12:55	57.2	57.2	57.2	88	53.7	1	4	248	0.01	29.743 
13:00	57.2	57.2	57.2	88	53.7	1	4	248	0.00	29.720 
13:05	57.0	57.0	57.0	88	53.5	0	2	248	0.02	29.720 
13:10	57.0	57.0	57.0	88	53.5	1	6	248	0.01	29.720 
13:15	56.9	56.9	56.9	89	53.7	1	3	68	0.00	29.714 
13:20	56.7	56.7	56.7	89	53.5	1	4	68	0.00	29.714 
13:25	56.9	56.9	56.9	90	54.0	1	3	248	0.00	29.714 
13:30	57.0	57.0	57.0	90	54.1	1	4	248	0.00	29.700 
13:35	57.3	57.3	57.3	90	54.4	2	6	248	0.00	29.700 
13:40	57.6	57.6	57.6	90	54.7	1	5	270	0.00	29.700 
13:45	58.1	58.1	58.1	90	55.2	1	4	270	0.00	29.694 
13:50	58.6	58.6	58.6	90	55.7	1	2	270	0.00	29.694 
13:55	59.0	59.0	59.0	89	55.8	1	5	90	0.00	29.694 
14:00	59.6	59.6	59.6	88	56.0	1	5	45	0.00	29.668 
14:05	59.9	59.9	59.9	88	56.3	2	6	248	0.00	29.668 
14:10	60.2	60.2	60.2	87	56.3	2	6	248	0.00	29.668 
14:15	60.2	60.2	60.2	85	55.7	2	11	248	0.00	29.683 
14:20	60.1	60.1	60.1	85	55.6	2	6	248	0.00	29.683 
14:25	60.1	60.1	60.1	85	55.6	2	9	248	0.00	29.683 
14:30	60.1	60.1	60.1	85	55.6	1	3	248	0.00	29.678 
14:35	59.9	59.9	59.9	86	55.7	2	5	248	0.00	29.678 
14:40	59.8	59.8	59.8	86	55.6	1	4	248	0.00	29.678 
14:45	59.6	59.6	59.6	86	55.4	2	7	270	0.00	29.680 
14:50	59.5	59.5	59.5	86	55.3	2	4	248	0.00	29.680 
14:55	59.5	59.5	59.5	87	55.6	2	4	248	0.00	29.680 
15:00	59.3	59.3	59.3	87	55.4	2	5	248	0.00	29.687 
15:05	59.3	59.3	59.3	88	55.7	2	9	270	0.00	29.687 
15:10	59.2	59.2	59.2	89	56.0	2	6	248	0.00	29.687 
15:15	59.0	59.0	59.0	89	55.8	1	5	248	0.00	29.684 
15:20	59.0	59.0	59.0	90	56.1	1	4	248	0.01	29.684 
15:25	59.0	59.0	59.0	90	56.1	2	10	248	0.00	29.684 
15:30	59.0	59.0	59.0	91	56.4	1	3	248	0.00	29.683 
15:35	59.0	59.0	59.0	91	56.4	1	3	248	0.00	29.683 
15:40	59.0	59.0	59.0	92	56.7	1	4	248	0.00	29.683 
15:45	59.2	59.2	59.2	92	56.9	2	6	248	0.00	29.684 
15:50	59.2	59.2	59.2	92	56.9	1	5	248	0.00	29.684 
15:55	59.3	59.3	59.3	92	57.0	2	6	248	0.00	29.684 
16:00	59.5	59.5	59.5	92	57.2	2	5	248	0.00	29.669 
16:05	59.8	59.8	59.8	93	57.8	2	4	248	0.00	29.669 
16:10	60.1	60.1	60.1	93	58.1	2	7	248	0.00	29.669 
16:15	60.5	60.5	60.5	93	58.5	1	7	248	0.00	29.675 
16:20	61.2	61.2	61.2	93	59.2	2	5	248	0.00	29.675 
16:25	61.6	61.6	61.6	92	59.2	2	5	248	0.00	29.675 
16:30	61.6	61.6	61.6	92	59.2	2	10	248	0.00	29.666 
16:35	61.8	61.8	61.8	91	59.1	2	6	248	0.00	29.666 
16:40	62.0	62.0	62.0	90	59.0	2	5	248	0.00	29.666 
16:45	62.0	62.0	62.0	90	59.0	2	5	248	0.00	29.672 
16:50	62.0	62.0	62.0	89	58.7	1	3	248	0.00	29.672 
16:55	62.1	62.1	62.1	88	58.5	1	4	248	0.00	29.672 
17:00	62.1	62.1	62.1	88	58.5	2	4	248	0.00	29.676 
17:05	62.3	62.3	62.3	87	58.4	2	6	248	0.00	29.676 
17:10	62.4	62.4	62.4	87	58.5	1	3	248	0.00	29.676 
17:15	62.4	62.4	62.4	87	58.5	1	4	248	0.00	29.672 
17:20	62.4	62.4	62.4	87	58.5	1	2	248	0.00	29.672 
17:25	62.6	62.6	62.6	87	58.7	1	4	248	0.00	29.672 
17:30	62.6	62.6	62.6	87	58.7	1	2	248	0.00	29.680 
17:35	62.6	62.6	62.6	87	58.7	1	3	248	0.00	29.680 
17:40	62.7	62.7	62.7	87	58.8	1	3	248	0.00	29.680 
17:45	62.7	62.7	62.7	86	58.4	1	3	248	0.00	29.680 
17:50	62.7	62.7	62.7	86	58.4	1	5	248	0.00	29.680 
17:55	62.9	62.9	62.9	86	58.6	1	4	248	0.00	29.680 
18:00	62.9	62.9	62.9	85	58.3	2	6	248	0.00	29.680 
18:05	62.9	62.9	62.9	85	58.3	1	3	248	0.00	29.680 
18:10	62.9	62.9	62.9	85	58.3	1	3	248	0.00	29.680 
18:15	62.9	62.9	62.9	85	58.3	1	3	248	0.00	29.687 
18:20	62.9	62.9	62.9	84	58.0	2	5	248	0.00	29.687 
18:25	62.7	62.7	62.7	84	57.8	2	5	248	0.00	29.687 
18:30	62.7	62.7	62.7	84	57.8	1	3	248	0.00	29.694 
18:35	62.6	62.6	62.6	84	57.7	1	5	248	0.00	29.694 
18:40	62.4	62.4	62.4	84	57.5	2	5	248	0.01	29.694 
18:45	62.1	62.1	62.1	85	57.5	2	4	248	0.01	29.713 
18:50	61.5	61.5	61.5	86	57.3	2	7	248	0.01	29.713 
18:55	60.9	60.9	60.9	87	57.0	3	6	270	0.00	29.713 
19:00	59.9	59.9	59.9	87	56.0	3	7	315	0.00	29.734 
19:05	59.3	59.3	59.3	87	55.4	2	5	315	0.00	29.734 
19:10	58.7	58.7	58.7	87	54.8	2	4	315	0.00	29.734 
19:15	58.4	58.4	58.4	88	54.9	1	4	338	0.00	29.745 
19:20	58.1	58.1	58.1	88	54.6	1	3	338	0.00	29.745 
19:25	58.0	58.0	58.0	88	54.5	0	2	338	0.00	29.745 
19:30	57.6	57.6	57.6	88	54.1	1	4	338	0.00	29.759 
19:35	57.3	57.3	57.3	88	53.8	1	5	338	0.00	29.759 
19:40	57.2	57.2	57.2	88	53.7	1	4	292	0.00	29.759 
19:45	56.9	56.9	56.9	88	53.4	2	3	292	0.00	29.761 
19:50	56.7	56.7	56.7	88	53.2	1	2	180	0.00	29.761 
19:55	56.5	56.5	56.5	88	53.0	0	2	180	0.00	29.761 
20:00	56.3	56.3	56.3	88	52.8	0	3	270	0.00	29.763 
20:05	56.2	56.2	56.2	88	52.7	0	2	270	0.00	29.763 
20:10	56.2	56.2	56.2	88	52.7	0	2	270	0.00	29.763 
20:15	56.0	56.0	56.0	88	52.5	0	2	270	0.00	29.771 
20:20	55.9	55.9	55.9	88	52.4	1	3	270	0.00	29.771 
20:25	55.9	55.9	55.9	88	52.4	1	3	270	0.00	29.771 
20:30	55.7	55.7	55.7	88	52.2	0	2	270	0.00	29.778 
20:35	55.6	55.6	55.6	89	52.4	1	4	270	0.00	29.778 
20:40	55.6	55.6	55.6	89	52.4	0	2	270	0.00	29.778 
20:45	55.4	55.4	55.4	88	51.9	1	2	270	0.00	29.792 
20:50	55.4	55.4	55.4	88	51.9	0	3	270	0.00	29.792 
20:55	55.3	55.3	55.3	89	52.1	0	1	270	0.00	29.792 
21:00	55.3	55.3	55.3	89	52.1	0	1	270	0.00	29.803 
21:05	55.1	55.1	55.1	89	51.9	0	2	270	0.00	29.803 
21:10	55.0	55.0	55.0	88	51.5	1	4	270	0.00	29.803 
21:15	55.0	55.0	55.0	88	51.5	0	3	270	0.00	29.805 
21:20	55.0	55.0	55.0	88	51.5	0	2	270	0.00	29.805 
21:25	55.0	55.0	55.0	88	51.5	0	2	270	0.00	29.805 
21:30	55.0	55.0	55.0	88	51.5	1	3	270	0.00	29.811 
21:35	54.8	54.8	54.8	88	51.3	1	4	270	0.00	29.811 
21:40	54.8	54.8	54.8	88	51.3	1	3	270	0.00	29.811 
21:45	54.5	54.5	54.5	87	50.7	0	2	270	0.00	29.810 
21:50	54.4	54.4	54.4	87	50.6	0	1	270	0.00	29.810 
21:55	54.1	54.1	54.1	87	50.3	0	1	270	0.00	29.810 
22:00	53.9	53.9	53.9	88	50.4	0	1	270	0.00	29.813 
22:05	53.6	53.6	53.6	88	50.1	0	0	---	0.00	29.813 
22:10	53.5	53.5	53.5	88	50.0	0	0	---	0.00	29.813 
22:15	53.2	53.2	53.2	88	49.7	0	0	---	0.00	29.820 
22:20	52.9	52.9	52.9	88	49.4	0	0	---	0.00	29.820 
22:25	52.6	52.6	52.6	88	49.1	0	0	---	0.00	29.820 
22:30	52.3	52.3	52.3	88	48.9	0	0	---	0.00	29.833 
22:35	51.9	51.9	51.9	88	48.5	0	0	---	0.00	29.833 
22:40	51.4	51.4	51.4	88	48.0	0	0	---	0.00	29.833 
22:45	51.0	51.0	51.0	88	47.6	0	0	---	0.00	29.841 
22:50	50.5	50.5	50.5	88	47.1	0	0	---	0.00	29.841 
22:55	50.2	50.2	50.2	89	47.1	0	0	---	0.00	29.841 
23:00	49.9	49.9	49.9	89	46.8	0	0	---	0.00	29.846 
23:05	49.6	49.6	49.6	89	46.5	0	0	---	0.00	29.846 
23:10	49.2	49.2	49.2	89	46.1	0	0	---	0.00	29.846 
23:15	48.8	48.8	48.8	90	46.0	0	0	---	0.00	29.846 
23:20	48.6	48.6	48.6	90	45.8	0	0	---	0.00	29.846 
23:25	48.5	48.5	48.5	90	45.7	0	0	---	0.00	29.846 
23:30	48.0	48.0	48.0	91	45.5	0	0	---	0.00	29.844 
23:35	47.7	47.7	47.7	91	45.2	0	0	---	0.00	29.844 
23:40	47.3	47.3	47.3	91	44.8	0	0	---	0.00	29.844 
23:45	47.0	47.0	47.0	91	44.5	0	0	---	0.00	29.843 
23:50	46.5	46.5	46.5	91	44.0	0	0	---	0.00	29.843 
23:55	46.1	46.1	46.1	91	43.6	0	0	---	0.00	29.843 

CoCoRaHS
IN-AL-39
A2 Web Hosting
Creative Commons License
GoDaddy
search engine by freefind advanced

loaded 2018-11-15 17:47:50 • last modified 2010-11-18 10:43:29
Privacy PolicyDisclaimer
• wx.awcolley.com is powered by PmWiki v.2002016 •
• all content (unless otherwise noted) © 2018 A W Colley